Schnellsuche:     vonnach     am:               Ankunft heute   Abflug heute   
Wetterdaten des Sylter Flughafens. Alle Angaben sind ohne Gewähr.



Datum: 2018-02-19 17:40 UTC
   
Windrichtung: 250°
Windgeschwindigkeit: 3 - 3 Kt.
QNH: 1019 hPa
Temperatur: 2 °C
Taupunkt: 1 °C
rel. Luftfeuchte: 95 %

METAR EDXW 191650Z 21003KT 2900 BR OVC008 02/01 Q1019 RMK ATIS ROM=

Wolkenhöhen in den letzten 48 Stunden:






 

Im Jettempo nach Sylt!



Rhein-Neckar-Air

Mannheim
Die Rhein-Neckar-Air fliegt vom 23. März bis zum 26. Oktober 2018 nach Mannheim. Zur Seite der Rhein-Neckar-Air: www.flyRNA.de

Lufthansa

Zürich, München und Frankfurt/Main
Die Lufthansa fliegt vom 21. April bis zum 20. Oktober 2018 nach Zürich, vom 24. März bis zum 06. Januar 2019 nach München und vom 25. März bis zum 13. Oktober 2018 nach Frankfurt/Main. Zur Seite der Lufthansa: www.lufthansa.de

Syltair

Hamburg
Die Syltair fliegt vom 29. März bis zum 04. Oktober 2018 nach Hamburg. Zur Seite der Syltair: www.syltair.de